Terminal Aerodrome Forecast
Issued by NWS

Home | Current Version | Previous Version | Text Only | Print | Product List | Glossary On
Versions: 1 2 3 4 5 6 7 8 9 10 11 12 13 14 15 16 17 18 19 20 21 22 23 24
000
FTUS43 KMPX 240900 AAA
TAFAXN
TAF AMD
KAXN 240936Z 2410/2506 33020G29KT P6SM -SHSN OVC012
     FM241600 33022G32KT P6SM OVC015
     FM242300 32014G24KT P6SM FEW015=

USA.gov is the U.S. government's official web portal to all federal, state and local government web resources and services.